createdAt,value
2023-04-26T00:00:11.404Z,7.60
2023-04-26T00:05:13.697Z,7.60
2023-04-26T00:10:17.590Z,7.60
2023-04-26T00:15:19.834Z,7.50
2023-04-26T00:20:22.001Z,7.60
2023-04-26T00:25:25.708Z,7.60
2023-04-26T00:30:27.993Z,7.60
2023-04-26T00:35:30.225Z,7.60
2023-04-26T00:40:33.811Z,7.60
2023-04-26T00:45:36.150Z,7.50
2023-04-26T00:50:38.335Z,7.50
2023-04-26T00:55:43.575Z,7.50
2023-04-26T01:00:45.813Z,7.50
2023-04-26T01:05:48.469Z,7.40
2023-04-26T01:10:53.081Z,7.50
2023-04-26T01:15:56.384Z,7.40
2023-04-26T01:20:58.515Z,7.40
2023-04-26T01:26:02.018Z,7.50
2023-04-26T01:31:04.203Z,7.40
2023-04-26T01:36:09.236Z,7.50
2023-04-26T01:41:12.882Z,7.50
2023-04-26T01:46:15.078Z,7.50
2023-04-26T01:51:17.322Z,7.60
2023-04-26T01:56:21.177Z,7.70
2023-04-26T02:01:23.362Z,7.70
2023-04-26T02:06:25.581Z,7.70
2023-04-26T02:11:29.129Z,7.60
2023-04-26T02:16:31.356Z,7.50
2023-04-26T02:21:33.575Z,7.40
2023-04-26T02:26:37.235Z,7.30
2023-04-26T02:31:39.461Z,7.20
2023-04-26T02:36:41.676Z,7.10
2023-04-26T02:41:45.199Z,7.00
2023-04-26T02:46:47.382Z,6.90
2023-04-26T02:51:49.570Z,6.90
2023-04-26T02:56:53.157Z,6.80
2023-04-26T03:01:55.288Z,6.90
2023-04-26T03:06:57.414Z,6.90
2023-04-26T03:12:01.254Z,6.90
2023-04-26T03:17:03.617Z,6.80
2023-04-26T03:22:05.899Z,6.80
2023-04-26T03:27:09.607Z,6.80
2023-04-26T03:32:11.774Z,6.80
2023-04-26T03:37:14.017Z,6.90
2023-04-26T03:42:17.632Z,7.00
2023-04-26T03:47:19.805Z,7.00
2023-04-26T03:52:21.989Z,7.00
2023-04-26T03:57:25.524Z,7.00
2023-04-26T04:02:27.774Z,6.90
2023-04-26T04:07:30.118Z,7.00
2023-04-26T04:12:33.705Z,7.00
2023-04-26T04:17:38.214Z,7.00
2023-04-26T04:22:41.014Z,7.10
2023-04-26T04:27:44.580Z,7.20
2023-04-26T04:32:46.885Z,7.20
2023-04-26T04:37:49.459Z,7.30
2023-04-26T04:42:53.140Z,7.30
2023-04-26T04:47:55.340Z,7.40
2023-04-26T04:52:57.637Z,7.60
2023-04-26T04:58:01.313Z,8.10
2023-04-26T05:03:03.677Z,8.60
2023-04-26T05:08:05.994Z,9.20
2023-04-26T05:13:09.692Z,9.80
2023-04-26T05:18:11.866Z,10.30
2023-04-26T05:23:14.082Z,10.90
2023-04-26T05:28:17.762Z,11.30
2023-04-26T05:33:20.058Z,11.80
2023-04-26T05:38:22.551Z,12.30
2023-04-26T05:43:26.172Z,12.90
2023-04-26T05:48:28.452Z,13.40
2023-04-26T05:53:30.760Z,13.60
2023-04-26T05:58:34.336Z,13.50
2023-04-26T06:03:36.871Z,13.40
2023-04-26T06:08:39.484Z,13.10
2023-04-26T06:13:43.367Z,13.10
2023-04-26T06:18:45.507Z,13.50
2023-04-26T06:23:47.681Z,14.20
2023-04-26T06:28:51.277Z,14.80
2023-04-26T06:33:54.820Z,15.10
2023-04-26T06:38:57.382Z,15.40
2023-04-26T06:44:01.381Z,16.10
2023-04-26T06:49:03.645Z,16.90
2023-04-26T06:54:05.884Z,17.60
2023-04-26T06:59:09.643Z,18.20
2023-04-26T07:04:11.953Z,18.90
2023-04-26T07:09:14.634Z,19.20
2023-04-26T07:14:18.119Z,18.80
2023-04-26T07:19:20.352Z,17.90
2023-04-26T07:24:22.596Z,16.90
2023-04-26T07:29:26.297Z,15.60
2023-04-26T07:34:28.517Z,14.30
2023-04-26T07:39:30.707Z,13.40
2023-04-26T07:44:34.410Z,12.80
2023-04-26T07:49:36.949Z,12.60
2023-04-26T07:54:39.091Z,13.00
2023-04-26T07:59:42.782Z,14.00
2023-04-26T08:04:49.046Z,15.20
2023-04-26T08:09:51.336Z,16.50
2023-04-26T08:14:55.114Z,17.70
2023-04-26T08:19:57.715Z,18.90
2023-04-26T08:24:59.867Z,19.80
2023-04-26T08:30:03.772Z,19.90
2023-04-26T08:35:06.617Z,19.30
2023-04-26T08:40:10.001Z,18.30
2023-04-26T08:45:15.776Z,17.30
2023-04-26T08:50:20.781Z,16.80
2023-04-26T08:55:24.062Z,16.80
2023-04-26T09:00:28.482Z,17.20
2023-04-26T09:05:31.518Z,17.90
2023-04-26T09:10:33.634Z,18.50
2023-04-26T09:15:37.537Z,19.00
2023-04-26T09:20:39.964Z,19.40
2023-04-26T09:25:42.249Z,19.40
2023-04-26T09:30:46.137Z,19.20
2023-04-26T09:35:48.407Z,18.60
2023-04-26T09:40:51.109Z,17.90
2023-04-26T09:45:57.117Z,17.00
2023-04-26T09:51:09.119Z,15.90
2023-04-26T09:56:13.055Z,15.30
2023-04-26T10:01:18.148Z,15.10
2023-04-26T10:06:20.518Z,15.20
2023-04-26T10:11:23.529Z,15.40
2023-04-26T10:16:28.766Z,15.80
2023-04-26T10:21:37.212Z,16.60
2023-04-26T10:26:50.217Z,17.30
2023-04-26T10:32:08.417Z,17.50
2023-04-26T10:37:12.902Z,17.20
2023-04-26T10:42:24.063Z,16.70
2023-04-26T10:47:34.062Z,16.30
2023-04-26T10:52:37.380Z,16.00
2023-04-26T10:57:52.827Z,15.60
2023-04-26T11:02:58.754Z,15.40
2023-04-26T11:08:08.217Z,15.40
2023-04-26T11:13:12.243Z,15.60
2023-04-26T11:18:19.405Z,16.00
2023-04-26T11:23:22.976Z,16.50
2023-04-26T11:28:25.292Z,16.60
2023-04-26T11:33:29.071Z,16.20
2023-04-26T11:38:31.256Z,15.80
2023-04-26T11:43:36.973Z,15.50
2023-04-26T11:48:41.573Z,15.20
2023-04-26T11:53:44.075Z,14.90
2023-04-26T11:58:47.873Z,14.80
2023-04-26T12:03:53.950Z,14.60
2023-04-26T12:08:57.435Z,14.50
2023-04-26T12:13:59.624Z,14.20
2023-04-26T12:19:05.776Z,14.00
2023-04-26T12:24:08.149Z,13.90
2023-04-26T12:29:10.381Z,13.70
2023-04-26T12:34:14.123Z,13.60
2023-04-26T12:39:33.153Z,13.50
2023-04-26T12:45:00.704Z,13.50
2023-04-26T12:50:20.326Z,13.50
2023-04-26T12:55:32.555Z,13.60
2023-04-26T13:00:53.785Z,13.90
2023-04-26T13:06:18.085Z,14.60
2023-04-26T13:17:00.853Z,15.40
2023-04-26T13:22:19.994Z,15.40
2023-04-26T13:27:35.650Z,15.30
2023-04-26T13:32:58.201Z,15.30
2023-04-26T13:38:20.181Z,15.40
2023-04-26T13:43:57.900Z,15.60
2023-04-26T13:49:03.265Z,15.70
2023-04-26T14:00:30.269Z,15.60
2023-04-26T14:05:45.644Z,15.50
2023-04-26T14:11:09.385Z,15.30
2023-04-26T14:16:22.846Z,15.30
2023-04-26T14:22:44.441Z,15.30
2023-04-26T14:28:14.433Z,15.30
2023-04-26T14:33:28.187Z,15.30
2023-04-26T14:38:40.844Z,15.40
2023-04-26T14:44:19.646Z,15.50
2023-04-26T14:49:36.005Z,15.70
2023-04-26T14:54:51.628Z,15.60
2023-04-26T15:00:44.214Z,15.70
2023-04-26T15:05:58.558Z,15.70
2023-04-26T15:11:26.337Z,15.70
2023-04-26T15:16:54.481Z,15.80
2023-04-26T15:22:09.033Z,15.80
2023-04-26T15:27:19.210Z,15.80
2023-04-26T15:32:40.814Z,15.80
2023-04-26T15:37:54.670Z,15.90
2023-04-26T15:43:09.547Z,15.70
2023-04-26T15:48:16.893Z,15.50
2023-04-26T15:53:43.969Z,15.20
2023-04-26T15:58:47.881Z,15.10
2023-04-26T16:03:53.478Z,15.00
2023-04-26T16:09:32.084Z,14.80
2023-04-26T16:14:42.382Z,14.70
2023-04-26T16:19:47.306Z,14.50
2023-04-26T16:24:52.166Z,14.40
2023-04-26T16:29:59.989Z,14.30
2023-04-26T16:35:09.365Z,14.30
2023-04-26T16:40:17.069Z,14.20
2023-04-26T16:45:19.945Z,14.10
2023-04-26T16:50:22.292Z,14.00
2023-04-26T16:55:26.000Z,13.80
2023-04-26T17:00:28.447Z,13.70
2023-04-26T17:05:30.634Z,13.50
2023-04-26T17:10:35.119Z,13.40
2023-04-26T17:15:37.358Z,13.30
2023-04-26T17:20:39.645Z,13.20
2023-04-26T17:25:43.224Z,13.10
2023-04-26T17:30:45.378Z,13.00
2023-04-26T17:35:47.499Z,12.90
2023-04-26T17:40:53.824Z,12.90
2023-04-26T17:45:56.057Z,12.80
2023-04-26T17:50:58.265Z,12.70
2023-04-26T17:56:01.924Z,12.60
2023-04-26T18:01:04.874Z,12.50
2023-04-26T18:06:07.349Z,12.40
2023-04-26T18:11:12.938Z,12.40
2023-04-26T18:16:15.469Z,12.40
2023-04-26T18:21:18.465Z,12.40
2023-04-26T18:26:22.339Z,12.30
2023-04-26T18:31:24.559Z,12.30
2023-04-26T18:36:26.752Z,12.10
2023-04-26T18:41:30.315Z,11.90
2023-04-26T18:46:32.418Z,11.70
2023-04-26T18:51:34.756Z,11.60
2023-04-26T18:56:38.586Z,11.40
2023-04-26T19:01:41.063Z,11.30
2023-04-26T19:06:43.511Z,11.10
2023-04-26T19:11:47.078Z,11.00
2023-04-26T19:16:50.833Z,10.90
2023-04-26T19:21:54.583Z,10.70
2023-04-26T19:26:58.156Z,10.60
2023-04-26T19:32:00.511Z,10.50
2023-04-26T19:37:03.007Z,10.50
2023-04-26T19:42:06.691Z,10.40
2023-04-26T19:47:08.989Z,10.30
2023-04-26T19:52:11.357Z,10.20
2023-04-26T19:57:14.888Z,10.10
2023-04-26T20:02:17.202Z,10.00
2023-04-26T20:07:19.405Z,9.80
2023-04-26T20:12:22.966Z,9.70
2023-04-26T20:17:25.094Z,9.60
2023-04-26T20:22:27.364Z,9.50
2023-04-26T20:27:30.968Z,9.30
2023-04-26T20:32:33.128Z,9.20
2023-04-26T20:37:35.282Z,9.10
2023-04-26T20:42:38.847Z,9.00
2023-04-26T20:47:41.172Z,9.00
2023-04-26T20:52:43.389Z,8.90
2023-04-26T20:57:46.964Z,8.90
2023-04-26T21:02:49.259Z,8.80
2023-04-26T21:07:51.469Z,8.70
2023-04-26T21:12:55.186Z,8.70
2023-04-26T21:17:57.371Z,8.60
2023-04-26T21:22:59.544Z,8.50
2023-04-26T21:28:03.174Z,8.30
2023-04-26T21:33:05.331Z,8.30
2023-04-26T21:38:07.406Z,8.20
2023-04-26T21:43:11.337Z,8.10
2023-04-26T21:48:13.521Z,8.00
2023-04-26T21:53:15.824Z,7.90
2023-04-26T21:58:19.874Z,7.90
2023-04-26T22:03:22.264Z,7.80
2023-04-26T22:08:24.649Z,7.70
2023-04-26T22:13:28.295Z,7.60
2023-04-26T22:18:30.530Z,7.50
2023-04-26T22:23:32.689Z,7.50
2023-04-26T22:28:36.301Z,7.40
2023-04-26T22:33:38.551Z,7.40
2023-04-26T22:38:40.705Z,7.30
2023-04-26T22:43:44.377Z,7.20
2023-04-26T22:48:46.539Z,7.00
2023-04-26T22:53:48.671Z,7.00
2023-04-26T22:58:52.914Z,6.90
2023-04-26T23:03:55.043Z,6.90
2023-04-26T23:08:57.159Z,6.80
2023-04-26T23:14:00.918Z,6.80
2023-04-26T23:19:03.042Z,6.80
2023-04-26T23:24:05.957Z,6.80
2023-04-26T23:29:09.719Z,6.80
2023-04-26T23:34:11.887Z,6.80
2023-04-26T23:39:14.234Z,6.80
2023-04-26T23:44:18.098Z,6.80
2023-04-26T23:49:20.263Z,6.90
2023-04-26T23:54:22.346Z,7.00
2023-04-26T23:59:25.969Z,7.10
